createdAt,value
2019-03-12T00:00:38.554Z,4.00
2019-03-12T00:03:07.343Z,3.90
2019-03-12T00:05:36.110Z,4.10
2019-03-12T00:08:05.323Z,4.17
2019-03-12T00:10:34.119Z,4.80
2019-03-12T00:13:02.897Z,4.67
2019-03-12T00:15:31.737Z,3.60
2019-03-12T00:18:00.509Z,4.73
2019-03-12T00:20:29.443Z,5.73
2019-03-12T00:22:58.179Z,4.20
2019-03-12T00:25:26.966Z,4.13
2019-03-12T00:27:55.746Z,4.20
2019-03-12T00:30:24.566Z,5.47
2019-03-12T00:32:55.722Z,3.97
2019-03-12T00:35:22.200Z,4.53
2019-03-12T00:37:51.124Z,5.53
2019-03-12T00:40:19.942Z,4.70
2019-03-12T00:42:48.778Z,5.63
2019-03-12T00:45:17.534Z,4.83
2019-03-12T00:47:47.686Z,5.43
2019-03-12T00:50:16.537Z,4.33
2019-03-12T00:52:45.340Z,4.77
2019-03-12T00:55:14.126Z,5.73
2019-03-12T00:57:43.065Z,5.27
2019-03-12T01:00:13.464Z,4.70
2019-03-12T01:02:42.239Z,5.83
2019-03-12T01:05:11.068Z,5.93
2019-03-12T01:07:39.835Z,7.40
2019-03-12T01:10:10.036Z,6.83
2019-03-12T01:12:38.823Z,7.03
2019-03-12T01:15:08.151Z,5.73
2019-03-12T01:17:36.952Z,6.03
2019-03-12T01:20:06.786Z,6.30
2019-03-12T01:22:35.569Z,5.83
2019-03-12T01:25:04.438Z,7.13
2019-03-12T01:27:33.214Z,6.63
2019-03-12T01:30:02.000Z,5.23
2019-03-12T01:32:31.893Z,5.67
2019-03-12T01:35:00.687Z,6.07
2019-03-12T01:37:29.463Z,6.13
2019-03-12T01:39:58.299Z,5.60
2019-03-12T01:42:27.091Z,6.63
2019-03-12T01:44:55.863Z,6.30
2019-03-12T01:47:25.553Z,7.10
2019-03-12T01:49:56.215Z,6.83
2019-03-12T01:52:24.986Z,6.70
2019-03-12T01:54:53.763Z,6.07
2019-03-12T01:57:22.595Z,7.63
2019-03-12T01:59:51.384Z,7.20
2019-03-12T02:02:20.302Z,6.37
2019-03-12T02:04:49.089Z,7.87
2019-03-12T02:07:17.919Z,7.43
2019-03-12T02:09:46.786Z,6.40
2019-03-12T02:12:15.627Z,7.13
2019-03-12T02:14:44.511Z,8.07
2019-03-12T02:17:13.395Z,7.77
2019-03-12T02:19:42.226Z,8.73
2019-03-12T02:22:12.837Z,7.43
2019-03-12T02:24:52.002Z,9.10
2019-03-12T02:27:10.695Z,8.07
2019-03-12T02:29:39.514Z,9.63
2019-03-12T02:32:08.304Z,9.47
2019-03-12T02:34:37.862Z,8.13
2019-03-12T02:37:07.597Z,9.33
2019-03-12T02:39:37.007Z,8.43
2019-03-12T02:42:05.959Z,8.07
2019-03-12T02:44:34.769Z,7.77
2019-03-12T02:47:03.562Z,8.03
2019-03-12T02:49:33.276Z,8.03
2019-03-12T02:52:02.170Z,7.60
2019-03-12T02:54:30.954Z,7.37
2019-03-12T02:56:59.784Z,7.40
2019-03-12T02:59:28.563Z,9.80
2019-03-12T03:01:57.348Z,7.60
2019-03-12T03:04:26.252Z,6.77
2019-03-12T03:07:03.247Z,7.50
2019-03-12T03:09:32.060Z,8.20
2019-03-12T03:12:00.939Z,6.70
2019-03-12T03:14:35.557Z,7.10
2019-03-12T03:17:05.860Z,7.20
2019-03-12T03:19:34.640Z,6.00
2019-03-12T03:22:03.432Z,6.33
2019-03-12T03:24:32.204Z,6.63
2019-03-12T03:27:01.002Z,5.53
2019-03-12T03:29:29.926Z,5.63
2019-03-12T03:31:58.773Z,7.37
2019-03-12T03:34:30.729Z,6.50
2019-03-12T03:36:59.536Z,6.43
2019-03-12T03:39:28.325Z,6.20
2019-03-12T03:41:57.126Z,6.00
2019-03-12T03:44:25.939Z,5.60
2019-03-12T03:46:54.812Z,5.97
2019-03-12T03:49:23.691Z,6.27
2019-03-12T03:51:52.394Z,6.57
2019-03-12T03:54:21.257Z,6.13
2019-03-12T03:56:50.047Z,5.30
2019-03-12T03:59:18.837Z,5.73
2019-03-12T04:01:47.637Z,6.50
2019-03-12T04:04:16.434Z,6.10
2019-03-12T04:06:45.882Z,6.17
2019-03-12T04:09:14.673Z,5.73
2019-03-12T04:11:43.556Z,5.73
2019-03-12T04:14:12.346Z,6.20
2019-03-12T04:16:41.138Z,5.60
2019-03-12T04:19:09.975Z,5.77
2019-03-12T04:21:38.747Z,6.03
2019-03-12T04:24:07.611Z,6.27
2019-03-12T04:26:37.730Z,5.80
2019-03-12T04:29:08.315Z,6.13
2019-03-12T04:31:42.854Z,7.00
2019-03-12T04:34:19.027Z,5.47
2019-03-12T04:36:50.408Z,6.70
2019-03-12T04:39:19.672Z,7.00
2019-03-12T04:41:48.485Z,6.30
2019-03-12T04:44:17.396Z,7.00
2019-03-12T04:46:46.192Z,7.43
2019-03-12T04:49:17.399Z,6.63
2019-03-12T04:52:04.383Z,6.93
2019-03-12T04:54:37.859Z,6.17
2019-03-12T04:57:06.637Z,7.20
2019-03-12T04:59:36.430Z,7.00
2019-03-12T05:02:05.239Z,6.57
2019-03-12T05:04:34.039Z,6.07
2019-03-12T05:07:02.849Z,6.10
2019-03-12T05:09:31.651Z,7.60
2019-03-12T05:12:00.488Z,7.83
2019-03-12T05:14:32.363Z,7.17
2019-03-12T05:17:06.341Z,7.23
2019-03-12T05:19:35.144Z,6.60
2019-03-12T05:22:03.990Z,6.77
2019-03-12T05:24:32.756Z,6.73
2019-03-12T05:27:01.548Z,6.63
2019-03-12T05:29:30.375Z,6.13
2019-03-12T05:31:59.238Z,6.57
2019-03-12T05:34:28.063Z,6.57
2019-03-12T05:36:57.445Z,8.37
2019-03-12T05:39:26.226Z,6.93
2019-03-12T05:41:55.022Z,7.27
2019-03-12T05:44:30.393Z,6.23
2019-03-12T05:46:59.291Z,6.77
2019-03-12T05:49:28.090Z,7.27
2019-03-12T05:51:56.869Z,7.40
2019-03-12T05:54:25.650Z,6.93
2019-03-12T05:56:54.546Z,7.63
2019-03-12T05:59:23.306Z,6.60
2019-03-12T06:01:52.151Z,6.63
2019-03-12T06:04:20.996Z,7.10
2019-03-12T06:06:49.806Z,6.07
2019-03-12T06:09:29.659Z,5.63
2019-03-12T06:11:47.391Z,6.23
2019-03-12T06:14:16.173Z,5.90
2019-03-12T06:16:45.064Z,5.53
2019-03-12T06:19:13.828Z,5.23
2019-03-12T06:21:42.667Z,5.93
2019-03-12T06:24:11.431Z,6.03
2019-03-12T06:26:40.248Z,6.23
2019-03-12T06:29:09.104Z,12.70
2019-03-12T06:32:00.338Z,7.10
2019-03-12T06:34:37.439Z,7.00
2019-03-12T06:37:16.404Z,6.50
2019-03-12T06:39:51.692Z,4.87
2019-03-12T06:42:25.803Z,5.77
2019-03-12T06:44:59.955Z,5.87
2019-03-12T06:47:34.786Z,5.03
2019-03-12T06:50:08.666Z,5.77
2019-03-12T06:52:44.581Z,4.93
2019-03-12T06:55:24.806Z,6.30
2019-03-12T06:58:12.078Z,6.10
2019-03-12T07:00:46.012Z,6.17
2019-03-12T07:03:20.160Z,8.60
2019-03-12T07:05:56.117Z,5.33
2019-03-12T07:08:29.093Z,5.70
2019-03-12T07:12:02.875Z,5.43
2019-03-12T07:14:41.988Z,4.53
2019-03-12T07:18:13.975Z,5.37
2019-03-12T07:22:52.102Z,5.30
2019-03-12T07:25:32.103Z,5.30
2019-03-12T07:28:09.007Z,5.60
2019-03-12T07:31:44.103Z,4.90
2019-03-12T07:34:20.086Z,5.30
2019-03-12T07:36:54.025Z,4.70
2019-03-12T07:39:28.291Z,4.90
2019-03-12T07:42:02.136Z,5.40
2019-03-12T07:44:35.089Z,5.00
2019-03-12T07:47:11.156Z,4.83
2019-03-12T07:49:45.943Z,4.53
2019-03-12T07:52:21.767Z,3.90
2019-03-12T07:55:26.125Z,5.07
2019-03-12T07:59:02.592Z,4.57
2019-03-12T08:01:39.532Z,4.30
2019-03-12T08:04:13.579Z,4.17
2019-03-12T08:06:56.622Z,4.57
2019-03-12T08:11:35.593Z,4.07
2019-03-12T08:14:10.360Z,4.40
2019-03-12T08:17:16.818Z,3.73
2019-03-12T08:19:49.770Z,3.60
2019-03-12T08:22:24.689Z,4.03
2019-03-12T08:25:28.907Z,4.17
2019-03-12T08:28:07.925Z,3.57
2019-03-12T08:31:44.791Z,3.33
2019-03-12T08:35:16.634Z,3.63
2019-03-12T08:37:54.849Z,3.40
2019-03-12T08:40:28.872Z,3.33
2019-03-12T08:43:01.822Z,2.90
2019-03-12T08:45:36.629Z,3.83
2019-03-12T08:48:12.637Z,3.77
2019-03-12T08:50:51.773Z,4.37
2019-03-12T08:53:25.262Z,3.87
2019-03-12T08:56:03.063Z,3.73
2019-03-12T08:59:41.923Z,3.80
2019-03-12T09:02:16.133Z,3.30
2019-03-12T09:06:53.006Z,3.57
2019-03-12T09:09:27.654Z,2.77
2019-03-12T09:12:18.877Z,4.00
2019-03-12T09:14:52.775Z,3.17
2019-03-12T09:17:28.720Z,3.77
2019-03-12T09:20:17.902Z,4.03
2019-03-12T09:22:53.951Z,4.97
2019-03-12T09:25:33.990Z,3.47
2019-03-12T09:28:10.111Z,3.40
2019-03-12T09:30:44.268Z,3.47
2019-03-12T09:33:19.079Z,3.20
2019-03-12T09:35:52.035Z,3.50
2019-03-12T09:38:27.062Z,3.00
2019-03-12T09:41:01.925Z,4.37
2019-03-12T09:45:38.780Z,3.87
2019-03-12T09:48:17.640Z,3.23
2019-03-12T09:50:50.605Z,3.70
2019-03-12T09:53:24.555Z,3.70
2019-03-12T09:55:57.520Z,4.03
2019-03-12T09:58:34.351Z,4.57
2019-03-12T10:01:40.955Z,3.37
2019-03-12T10:04:14.106Z,3.60
2019-03-12T10:06:53.060Z,3.80
2019-03-12T10:10:25.974Z,3.47
2019-03-12T10:13:00.154Z,3.73
2019-03-12T10:15:33.101Z,3.50
2019-03-12T10:18:10.020Z,4.00
2019-03-12T10:20:45.977Z,3.17
2019-03-12T10:23:23.957Z,5.17
2019-03-12T10:26:57.993Z,5.87
2019-03-12T10:29:35.051Z,3.60
2019-03-12T10:32:10.232Z,3.10
2019-03-12T10:35:16.070Z,3.40
2019-03-12T10:37:49.931Z,3.80
2019-03-12T10:40:27.723Z,3.70
2019-03-12T10:43:06.047Z,3.43
2019-03-12T10:46:41.841Z,4.03
2019-03-12T10:49:10.665Z,3.53
2019-03-12T10:51:39.452Z,3.10
2019-03-12T10:54:08.251Z,3.47
2019-03-12T10:56:37.084Z,3.40
2019-03-12T10:59:05.881Z,3.87
2019-03-12T11:01:35.450Z,3.57
2019-03-12T11:04:04.936Z,2.60
2019-03-12T11:06:34.655Z,3.80
2019-03-12T11:09:06.015Z,3.37
2019-03-12T11:11:34.800Z,3.30
2019-03-12T11:14:03.600Z,3.70
2019-03-12T11:16:32.408Z,4.80
2019-03-12T11:19:01.193Z,4.00
2019-03-12T11:21:30.071Z,3.30
2019-03-12T11:23:59.924Z,3.27
2019-03-12T11:26:29.712Z,3.20
2019-03-12T11:28:58.551Z,3.23
2019-03-12T11:31:27.327Z,3.23
2019-03-12T11:33:56.108Z,2.97
2019-03-12T11:36:24.931Z,3.30
2019-03-12T11:38:53.938Z,3.47
2019-03-12T11:41:22.662Z,3.37
2019-03-12T11:43:51.453Z,3.83
2019-03-12T11:46:21.152Z,3.63
2019-03-12T11:48:49.905Z,3.10
2019-03-12T11:51:18.862Z,3.60
2019-03-12T11:53:47.923Z,3.70
2019-03-12T11:56:16.502Z,11.87
2019-03-12T11:58:45.378Z,11.13
2019-03-12T12:01:14.312Z,3.20
2019-03-12T12:03:43.115Z,3.10
2019-03-12T12:06:11.940Z,3.57
2019-03-12T12:08:40.759Z,9.03
2019-03-12T12:11:09.587Z,3.80
2019-03-12T12:13:38.385Z,3.30
2019-03-12T12:16:07.213Z,3.13
2019-03-12T12:18:35.983Z,3.23
2019-03-12T12:21:05.255Z,3.07
2019-03-12T12:23:34.041Z,3.03
2019-03-12T12:26:02.829Z,3.83
2019-03-12T12:28:31.668Z,2.93
2019-03-12T12:31:01.487Z,3.37
2019-03-12T12:33:31.024Z,3.03
2019-03-12T12:35:59.867Z,2.80
2019-03-12T12:38:28.655Z,3.10
2019-03-12T12:40:58.184Z,13.43
2019-03-12T12:43:26.971Z,17.40
2019-03-12T12:45:55.758Z,3.87
2019-03-12T12:48:24.567Z,4.00
2019-03-12T12:51:02.977Z,3.13
2019-03-12T12:53:22.151Z,2.40
2019-03-12T12:55:50.927Z,2.53
2019-03-12T12:58:19.723Z,2.70
2019-03-12T13:00:48.546Z,3.30
2019-03-12T13:03:17.318Z,3.07
2019-03-12T13:05:46.118Z,3.47
2019-03-12T13:08:14.951Z,2.57
2019-03-12T13:10:43.797Z,2.60
2019-03-12T13:13:12.578Z,2.77
2019-03-12T13:15:42.447Z,3.43
2019-03-12T13:18:11.365Z,2.90
2019-03-12T13:20:40.166Z,2.50
2019-03-12T13:23:09.037Z,3.50
2019-03-12T13:25:37.833Z,2.90
2019-03-12T13:28:07.444Z,2.80
2019-03-12T13:30:36.305Z,2.53
2019-03-12T13:33:05.093Z,5.10
2019-03-12T13:35:33.965Z,3.17
2019-03-12T13:38:02.768Z,2.90
2019-03-12T13:40:32.006Z,2.73
2019-03-12T13:43:00.769Z,2.47
2019-03-12T13:45:29.608Z,2.10
2019-03-12T13:48:02.706Z,2.40
2019-03-12T13:50:30.953Z,2.83
2019-03-12T13:52:59.737Z,2.23
2019-03-12T13:55:29.527Z,2.07
2019-03-12T13:57:58.305Z,2.73
2019-03-12T14:00:29.338Z,2.37
2019-03-12T14:02:58.146Z,3.10
2019-03-12T14:05:27.915Z,2.03
2019-03-12T14:07:56.714Z,2.83
2019-03-12T14:10:25.552Z,2.47
2019-03-12T14:12:54.591Z,2.43
2019-03-12T14:15:25.790Z,2.30
2019-03-12T14:17:54.585Z,2.43
2019-03-12T14:20:37.180Z,4.50
2019-03-12T14:23:06.092Z,4.53
2019-03-12T14:25:35.120Z,4.03
2019-03-12T14:28:03.929Z,2.87
2019-03-12T14:30:32.831Z,2.77
2019-03-12T14:33:01.640Z,7.83
2019-03-12T14:35:30.445Z,2.90
2019-03-12T14:37:59.319Z,3.00
2019-03-12T14:40:28.740Z,2.43
2019-03-12T14:42:57.553Z,5.93
2019-03-12T14:45:28.080Z,10.07
2019-03-12T14:47:57.003Z,4.93
2019-03-12T14:50:25.810Z,3.33
2019-03-12T14:52:58.487Z,2.90
2019-03-12T14:55:28.451Z,2.73
2019-03-12T14:58:00.659Z,2.80
2019-03-12T15:00:32.989Z,3.70
2019-03-12T15:03:12.830Z,2.77
2019-03-12T15:05:47.568Z,2.23
2019-03-12T15:08:16.476Z,2.50
2019-03-12T15:10:45.432Z,2.97
2019-03-12T15:13:16.671Z,2.90
2019-03-12T15:15:48.216Z,2.97
2019-03-12T15:18:21.258Z,2.47
2019-03-12T15:20:50.939Z,2.43
2019-03-12T15:23:21.319Z,2.43
2019-03-12T15:29:04.130Z,2.43
2019-03-12T15:31:32.959Z,2.80
2019-03-12T15:34:01.765Z,2.63
2019-03-12T15:36:33.641Z,3.00
2019-03-12T15:39:02.406Z,2.53
2019-03-12T15:41:31.203Z,2.30
2019-03-12T15:43:59.985Z,2.73
2019-03-12T15:46:28.773Z,2.63
2019-03-12T15:48:57.682Z,2.60
2019-03-12T15:51:26.475Z,2.93
2019-03-12T15:53:55.257Z,1.93
2019-03-12T15:56:24.179Z,2.40
2019-03-12T15:58:52.992Z,2.37
2019-03-12T16:01:21.827Z,2.30
2019-03-12T16:03:50.639Z,2.97
2019-03-12T16:06:19.519Z,6.30
2019-03-12T16:08:48.340Z,3.17
2019-03-12T16:11:17.136Z,3.47
2019-03-12T16:13:45.956Z,2.33
2019-03-12T16:16:14.773Z,2.40
2019-03-12T16:18:43.747Z,2.67
2019-03-12T16:21:13.352Z,2.50
2019-03-12T16:23:43.043Z,2.10
2019-03-12T16:26:11.863Z,2.53
2019-03-12T16:28:40.690Z,2.70
2019-03-12T16:31:09.508Z,2.43
2019-03-12T16:33:38.398Z,1.77
2019-03-12T16:36:07.265Z,2.70
2019-03-12T16:38:36.061Z,2.43
2019-03-12T16:41:05.474Z,1.83
2019-03-12T16:43:34.285Z,2.33
2019-03-12T16:46:03.087Z,2.37
2019-03-12T16:48:31.973Z,2.17
2019-03-12T16:51:01.689Z,2.30
2019-03-12T16:53:30.463Z,2.33
2019-03-12T16:55:59.259Z,2.30
2019-03-12T16:58:28.074Z,3.00
2019-03-12T17:00:56.898Z,2.50
2019-03-12T17:03:25.717Z,2.60
2019-03-12T17:05:54.531Z,2.20
2019-03-12T17:08:23.315Z,2.57
2019-03-12T17:11:02.625Z,2.73
2019-03-12T17:13:28.129Z,2.60
2019-03-12T17:15:57.314Z,2.97
2019-03-12T17:18:27.250Z,2.47
2019-03-12T17:20:57.066Z,2.63
2019-03-12T17:23:25.963Z,2.80
2019-03-12T17:25:55.481Z,2.80
2019-03-12T17:28:24.346Z,2.80
2019-03-12T17:30:53.171Z,3.10
2019-03-12T17:33:21.960Z,3.17
2019-03-12T17:35:52.116Z,2.90
2019-03-12T17:38:20.884Z,2.70
2019-03-12T17:40:49.659Z,2.73
2019-03-12T17:43:18.579Z,3.03
2019-03-12T17:45:47.361Z,2.83
2019-03-12T17:48:16.146Z,2.80
2019-03-12T17:50:46.129Z,3.27
2019-03-12T17:53:14.903Z,3.23
2019-03-12T17:55:43.742Z,3.50
2019-03-12T17:58:12.569Z,7.07
2019-03-12T18:00:43.108Z,3.53
2019-03-12T18:03:11.899Z,3.30
2019-03-12T18:05:41.548Z,3.10
2019-03-12T18:08:10.368Z,3.23
2019-03-12T18:10:39.167Z,6.70
2019-03-12T18:13:07.948Z,4.43
2019-03-12T18:15:36.859Z,2.77
2019-03-12T18:18:05.879Z,2.87
2019-03-12T18:20:34.675Z,3.10
2019-03-12T18:23:03.470Z,3.47
2019-03-12T18:25:32.487Z,3.30
2019-03-12T18:28:01.362Z,3.57
2019-03-12T18:30:30.215Z,3.37
2019-03-12T18:32:59.116Z,3.43
2019-03-12T18:35:27.998Z,3.33
2019-03-12T18:37:57.430Z,3.80
2019-03-12T18:40:26.253Z,3.37
2019-03-12T18:42:55.055Z,3.43
2019-03-12T18:45:23.855Z,3.33
2019-03-12T18:47:52.783Z,3.57
2019-03-12T18:50:21.687Z,3.50
2019-03-12T18:52:50.503Z,3.43
2019-03-12T18:55:29.671Z,3.33
2019-03-12T18:57:58.459Z,3.17
2019-03-12T19:00:28.217Z,3.70
2019-03-12T19:02:57.059Z,3.10
2019-03-12T19:05:28.235Z,4.00
2019-03-12T19:07:55.183Z,3.77
2019-03-12T19:10:24.013Z,3.67
2019-03-12T19:12:52.877Z,3.70
2019-03-12T19:15:21.690Z,4.00
2019-03-12T19:17:50.570Z,3.47
2019-03-12T19:20:19.398Z,3.73
2019-03-12T19:22:48.312Z,3.67
2019-03-12T19:25:17.138Z,3.40
2019-03-12T19:27:58.829Z,4.10
2019-03-12T19:30:15.719Z,3.20
2019-03-12T19:32:49.800Z,3.23
2019-03-12T19:35:18.720Z,3.67
2019-03-12T19:37:47.520Z,3.80
2019-03-12T19:40:17.621Z,3.47
2019-03-12T19:42:46.497Z,3.67
2019-03-12T19:45:15.402Z,4.07
2019-03-12T19:47:44.272Z,3.77
2019-03-12T19:50:14.568Z,3.77
2019-03-12T19:52:43.360Z,3.97
2019-03-12T19:55:14.115Z,2.90
2019-03-12T19:57:43.006Z,2.43
2019-03-12T20:00:14.433Z,1.70
2019-03-12T20:02:43.399Z,1.50
2019-03-12T20:05:12.218Z,1.40
2019-03-12T20:07:41.683Z,1.23
2019-03-12T20:10:25.293Z,1.70
2019-03-12T20:15:13.145Z,1.30
2019-03-12T20:19:01.748Z,1.10
2019-03-12T20:21:52.397Z,1.33
2019-03-12T20:26:36.075Z,0.90
2019-03-12T20:29:50.087Z,1.40
2019-03-12T20:32:30.365Z,1.10
2019-03-12T20:35:13.267Z,1.20
2019-03-12T20:40:00.171Z,1.30
2019-03-12T20:44:42.983Z,1.00
2019-03-12T20:47:23.307Z,1.30
2019-03-12T20:50:03.850Z,1.20
2019-03-12T20:55:07.248Z,1.73
2019-03-12T20:57:46.143Z,1.70
2019-03-12T21:00:36.213Z,1.93
2019-03-12T21:03:17.949Z,2.07
2019-03-12T21:06:02.160Z,2.07
2019-03-12T21:10:44.974Z,2.00
2019-03-12T21:14:01.286Z,2.20
2019-03-12T21:16:40.193Z,2.57
2019-03-12T21:21:23.116Z,1.77
2019-03-12T21:24:03.840Z,2.00
2019-03-12T21:26:53.544Z,2.50
2019-03-12T21:29:45.634Z,2.17
2019-03-12T21:32:15.220Z,2.30
2019-03-12T21:34:44.113Z,2.53
2019-03-12T21:37:13.398Z,2.00
2019-03-12T21:39:54.494Z,2.93
2019-03-12T21:42:10.965Z,2.60
2019-03-12T21:44:39.801Z,3.30
2019-03-12T21:47:08.588Z,3.37
2019-03-12T21:49:37.369Z,3.67
2019-03-12T21:52:07.903Z,3.73
2019-03-12T21:54:36.983Z,3.40
2019-03-12T21:57:05.795Z,3.40
2019-03-12T21:59:34.589Z,3.10
2019-03-12T22:02:03.472Z,3.13
2019-03-12T22:04:32.278Z,2.70
2019-03-12T22:07:01.268Z,2.60
2019-03-12T22:09:30.018Z,2.63
2019-03-12T22:11:58.836Z,2.90
2019-03-12T22:14:27.637Z,2.97
2019-03-12T22:16:59.127Z,2.30
2019-03-12T22:19:27.956Z,7.97
2019-03-12T22:22:03.052Z,4.60
2019-03-12T22:24:31.939Z,2.50
2019-03-12T22:27:00.728Z,2.67
2019-03-12T22:29:29.520Z,2.53
2019-03-12T22:31:58.316Z,2.50
2019-03-12T22:34:30.014Z,2.50
2019-03-12T22:36:56.004Z,2.20
2019-03-12T22:39:24.793Z,1.90
2019-03-12T22:41:53.698Z,2.53
2019-03-12T22:44:22.406Z,2.57
2019-03-12T22:46:51.173Z,2.20
2019-03-12T22:49:20.032Z,2.10
2019-03-12T22:51:48.768Z,1.83
2019-03-12T22:54:17.545Z,2.57
2019-03-12T22:56:46.313Z,2.13
2019-03-12T22:59:15.108Z,2.27
2019-03-12T23:01:49.504Z,2.47
2019-03-12T23:04:23.989Z,1.83
2019-03-12T23:06:58.301Z,2.30
2019-03-12T23:09:32.847Z,2.77
2019-03-12T23:12:01.632Z,2.30
2019-03-12T23:14:30.415Z,2.50
2019-03-12T23:16:59.259Z,2.27
2019-03-12T23:19:28.049Z,2.53
2019-03-12T23:21:56.964Z,3.17
2019-03-12T23:24:25.822Z,2.47
2019-03-12T23:26:54.615Z,3.23
2019-03-12T23:29:23.387Z,2.90
2019-03-12T23:31:52.176Z,3.07
2019-03-12T23:34:20.970Z,3.10
2019-03-12T23:36:49.791Z,3.17
2019-03-12T23:39:18.667Z,3.37
2019-03-12T23:41:48.003Z,8.43
2019-03-12T23:44:16.801Z,3.03
2019-03-12T23:46:45.573Z,3.27
2019-03-12T23:49:14.355Z,3.03
2019-03-12T23:51:43.159Z,3.03
2019-03-12T23:54:11.945Z,3.40
2019-03-12T23:56:40.797Z,3.40
2019-03-12T23:59:09.612Z,3.87
